Pagrindinis puslapis
METAR-TAF:

METAR-TAF

Oro uostai :

Natalis, Rio Grande do Norte, Brazilija

platuma: 05-46-05S, ilguma: 035-22-34W, Aukštis: 88 m

Dabartinis oras

Ataskaita buvo paskelbta 10 minutes, ne 13:00 UTC
Vėjas 13 kt iš Pietryčių
Temperatūra 31°C
Drėgmė 59%
Slėgis 1012 hPa
Matomumas 10 km arba daugiau
Su prošvaistėmis ne aukštis 3300 ft

METAR: SBSG 301300Z 14013KT 9999 BKN033 31/22 Q1012

Laikas: 10:10 (13:10 UTC)

Prognozė

Ataskaita buvo paskelbta 4 valandos ir 10 minutes, ne 09:00 UTC
Prognozė galioja nuo 30 metu 12 UTC su 01 metu 12 UTC
Vėjas 17 kt iš Pietryčių
Matomumas 10 km arba daugiau
Su prošvaistėmis ne aukštis 3000 ft
Tapsmas
nuo 30 metu 21 UTC su 30 metu 23 UTC
Vėjas 7 kt iš Pietų/Pietryčių
Išsisklaidę debesys ne aukštis 1700 ft

TAF: SBSG 300900Z 3012/0112 14017KT 9999 BKN030 TX31/3017Z TN26/0108Z BECMG 3021/3023 15007KT SCT017 RMK PGU

Orai ataskaitas ir orų prognozės (METAR, TAF).

turimą stotys yra geltonos ir raudonos taškus žemėlapyje.

Perkelti pele per norėdami pamatyti stoties vardą.

Tada spustelėkite, norėdami matyti oro stebėjimo ir prognozės.

Norėdami pakeisti žemėlapį: spustelėkite ant žalios mygtukų su juodo kryžiaus žemyn,; žalią mygtuką su brūkšneliu, jei norite nutolinti; arba žalių rodyklių gretimoms žemėlapius.


METAR-TAF: